Time;durP1;ratioP1;P1;durP2;ratioP2;P2;SDS_P1;SDS_P2;PMS_P1;PMS_P2;Temp;Humidity;BMP_temperature;BMP_pressure;BME280_temperature;BME280_humidity;BME280_pressure;Samples;Min_cycle;Max_cycle;Signal;HPM_P1;HPM_P2
2023/06/08 00:01:44;;;;;;;10.20;2.30;;;;;;;18.66;46.89;99840.92;77391;1300;3013363;-64
2023/06/08 00:04:12;;;;;;;7.20;2.20;;;;;;;18.59;46.70;99840.36;78108;1296;3027578;-64
2023/06/08 00:06:40;;;;;;;5.20;2.10;;;;;;;18.65;46.73;99839.37;79300;1297;3013032;-64
2023/06/08 00:09:11;;;;;;;4.00;1.70;;;;;;;18.63;46.76;99833.67;78137;1299;3048976;-64
2023/06/08 00:11:38;;;;;;;5.50;1.90;;;;;;;18.64;46.37;99832.20;79359;1299;3013852;-64
2023/06/08 00:14:05;;;;;;;2.60;1.60;;;;;;;18.68;46.54;99831.27;79412;1301;3011718;-64
2023/06/08 00:16:34;;;;;;;4.50;2.40;;;;;;;18.69;45.68;99829.25;78146;1300;3052381;-64
2023/06/08 00:19:02;;;;;;;4.90;2.40;;;;;;;18.70;46.13;99829.91;79388;1295;3011835;-64
2023/06/08 00:21:33;;;;;;;4.30;2.00;;;;;;;18.66;46.09;99829.52;78892;1294;3011537;-64
2023/06/08 00:24:00;;;;;;;4.20;1.80;;;;;;;18.64;46.11;99829.50;79322;1295;3013566;-65
2023/06/08 00:26:26;;;;;;;4.80;2.30;;;;;;;18.68;45.49;99832.55;79423;1294;3012145;-65
2023/06/08 00:28:54;;;;;;;4.70;2.10;;;;;;;18.63;45.92;99831.71;78080;1300;3051709;-65
2023/06/08 00:31:22;;;;;;;3.90;1.90;;;;;;;18.65;45.58;99825.77;79467;1299;3013489;-65
2023/06/08 00:33:49;;;;;;;4.20;1.80;;;;;;;18.68;45.35;99822.59;79338;1300;3013101;-64
2023/06/08 00:36:20;;;;;;;3.80;1.90;;;;;;;18.70;45.04;99825.96;78171;1297;3051631;-64
2023/06/08 00:38:46;;;;;;;7.10;1.90;;;;;;;18.70;44.87;99827.00;79316;1299;3013107;-64
2023/06/08 00:41:13;;;;;;;6.80;2.10;;;;;;;18.71;44.60;99821.09;79263;1299;3012877;-64
2023/06/08 00:43:45;;;;;;;5.30;2.00;;;;;;;18.70;44.71;99822.73;78067;1300;3029196;-64
2023/06/08 00:46:14;;;;;;;6.70;2.00;;;;;;;18.71;44.69;99821.05;79289;1301;3011668;-64
2023/06/08 00:48:43;;;;;;;8.10;2.40;;;;;;;18.71;44.67;99819.09;78085;1299;3054968;-65
2023/06/08 00:51:10;;;;;;;5.60;1.80;;;;;;;18.74;44.49;99820.65;79470;1300;3013235;-64
2023/06/08 00:53:41;;;;;;;3.70;1.80;;;;;;;18.76;44.62;99822.48;78842;1297;3012887;-65
2023/06/08 00:56:08;;;;;;;1.90;1.50;;;;;;;18.75;44.06;99822.49;79398;1297;3012960;-65
2023/06/08 00:58:37;;;;;;;5.30;1.60;;;;;;;18.76;44.50;99826.17;79367;1300;3012191;-64
2023/06/08 01:01:11;;;;;;;3.50;1.40;;;;;;;18.77;44.30;99826.28;78155;1300;3050132;-65
2023/06/08 01:03:38;;;;;;;4.80;1.50;;;;;;;18.75;44.29;99821.41;79294;1298;3012830;-64
2023/06/08 01:06:08;;;;;;;10.50;1.40;;;;;;;18.73;44.47;99826.05;78119;1300;3052100;-64
2023/06/08 01:09:32;;;;;;;4.70;1.90;;;;;;;18.75;44.21;99826.08;79365;1294;3014979;-65
2023/06/08 01:12:06;;;;;;;4.10;1.70;;;;;;;18.73;44.43;99825.02;77739;1306;3056823;-64
2023/06/08 01:15:04;;;;;;;3.60;1.70;;;;;;;18.69;44.07;99824.14;78913;1303;3011901;-65
2023/06/08 01:17:39;;;;;;;3.90;1.70;;;;;;;18.67;43.88;99822.23;78035;1298;3052961;-65
2023/06/08 01:20:21;;;;;;;5.10;1.70;;;;;;;18.66;44.04;99826.31;79262;1300;3011630;-64
2023/06/08 01:23:25;;;;;;;4.30;2.00;;;;;;;18.68;44.08;99828.68;78099;1299;3052506;-64
2023/06/08 01:25:55;;;;;;;3.10;1.90;;;;;;;18.67;43.83;99831.98;78211;1299;3053753;-64
2023/06/08 01:28:23;;;;;;;3.60;1.50;;;;;;;18.65;44.15;99825.21;79380;1297;3013275;-64
2023/06/08 01:30:52;;;;;;;4.10;1.50;;;;;;;18.61;44.00;99828.15;78910;1297;3011923;-64
2023/06/08 07:04:35;;;;;;;6.00;2.20;;;;;;;24.82;35.21;99845.70;80031;1301;3012958;-64
2023/06/08 07:07:03;;;;;;;7.60;2.30;;;;;;;24.77;35.38;99845.85;79041;1304;3013489;-63
2023/06/08 07:09:29;;;;;;;6.40;2.00;;;;;;;24.82;35.21;99847.55;79105;1305;3011540;-64
2023/06/08 07:11:57;;;;;;;8.00;2.50;;;;;;;24.87;35.00;99845.00;77987;1305;3026459;-64
2023/06/08 07:14:25;;;;;;;5.70;2.10;;;;;;;24.89;35.42;99849.36;79266;1307;3013268;-64
2023/06/08 07:16:51;;;;;;;3.90;1.80;;;;;;;25.02;35.51;99850.76;77293;1304;3012183;-64
2023/06/08 07:19:19;;;;;;;10.30;2.20;;;;;;;25.14;34.45;99849.23;77989;1301;3026156;-63
2023/06/08 07:21:46;;;;;;;5.10;1.80;;;;;;;25.20;33.99;99851.41;79219;1303;3013084;-63
2023/06/08 07:24:13;;;;;;;4.20;2.00;;;;;;;25.15;34.00;99850.20;79160;1302;3011581;-63
2023/06/08 07:26:43;;;;;;;3.90;1.60;;;;;;;25.09;33.66;99849.81;78068;1302;3027256;-63
2023/06/08 07:29:10;;;;;;;5.50;1.40;;;;;;;25.05;33.57;99850.90;79257;1298;3011912;-63
2023/06/08 07:31:39;;;;;;;2.50;1.60;;;;;;;25.12;33.63;99850.98;79451;1298;3011493;-63
2023/06/08 07:34:07;;;;;;;5.20;1.50;;;;;;;25.11;32.03;99849.21;78070;1302;3049145;-63
2023/06/08 07:36:35;;;;;;;2.10;1.30;;;;;;;25.11;30.83;99850.55;79210;1304;3013010;-63
2023/06/08 07:39:03;;;;;;;3.20;1.30;;;;;;;25.13;30.78;99853.92;79270;1303;3011519;-63
2023/06/08 07:41:31;;;;;;;3.10;1.10;;;;;;;25.01;30.64;99857.35;78012;1304;3052679;-63
2023/06/08 07:43:58;;;;;;;3.10;1.30;;;;;;;24.94;30.90;99851.52;79213;1300;3013204;-62
2023/06/08 07:46:25;;;;;;;4.80;1.30;;;;;;;24.93;31.36;99847.69;79131;1303;3013848;-63
2023/06/08 07:48:53;;;;;;;4.00;1.30;;;;;;;25.12;31.46;99849.95;78021;1302;3028287;-63
2023/06/08 07:51:20;;;;;;;7.50;1.50;;;;;;;25.22;30.70;99851.49;79168;1298;3018517;-63
2023/06/08 07:53:46;;;;;;;7.10;1.30;;;;;;;25.25;30.46;99849.89;79217;1302;3011649;-63
2023/06/08 07:56:14;;;;;;;2.10;1.30;;;;;;;25.19;29.21;99852.39;78016;1303;3027433;-63
2023/06/08 07:58:43;;;;;;;3.50;1.30;;;;;;;25.07;29.21;99850.15;79524;1297;3013609;-63
2023/06/08 08:01:10;;;;;;;2.80;1.40;;;;;;;25.12;29.42;99842.08;79326;1297;3011721;-63
2023/06/08 08:03:37;;;;;;;4.30;1.20;;;;;;;25.22;29.39;99845.98;77969;1302;3048206;-63
2023/06/08 08:06:05;;;;;;;4.10;1.50;;;;;;;25.28;28.78;99846.30;79216;1298;3013692;-63
2023/06/08 08:08:32;;;;;;;3.70;1.40;;;;;;;25.42;29.06;99844.30;79353;1298;3011949;-63
2023/06/08 08:11:01;;;;;;;3.20;1.40;;;;;;;25.51;28.55;99840.35;78185;1301;3053405;-63
2023/06/08 08:13:28;;;;;;;3.20;1.50;;;;;;;25.54;29.10;99839.71;79240;1302;3021222;-62
2023/06/08 08:15:55;;;;;;;5.90;1.50;;;;;;;25.62;29.20;99837.81;79345;1297;3011911;-63
2023/06/08 08:18:23;;;;;;;3.60;1.10;;;;;;;25.76;29.66;99839.39;78087;1302;3049451;-63
2023/06/08 08:20:50;;;;;;;2.80;1.30;;;;;;;25.85;29.80;99839.35;79274;1297;3012986;-63
2023/06/08 08:23:17;;;;;;;5.30;1.10;;;;;;;25.91;29.46;99842.98;79310;1297;3013388;-63
2023/06/08 08:25:45;;;;;;;2.80;1.50;;;;;;;25.97;29.19;99841.02;78135;1303;3027150;-63
2023/06/08 08:28:13;;;;;;;5.30;1.20;;;;;;;26.04;28.69;99839.54;79266;1300;3020604;-63
2023/06/08 08:30:39;;;;;;;1.90;1.00;;;;;;;26.10;29.11;99844.26;79278;1296;3011746;-63
2023/06/08 08:33:07;;;;;;;3.70;1.30;;;;;;;26.19;28.89;99840.09;78184;1297;3048972;-63
2023/06/08 08:35:34;;;;;;;3.10;1.20;;;;;;;26.28;28.77;99844.76;79184;1300;3018384;-63
2023/06/08 08:38:01;;;;;;;3.80;1.50;;;;;;;26.46;29.02;99842.67;79130;1296;3013384;-63
2023/06/08 08:40:29;;;;;;;6.90;1.30;;;;;;;26.48;29.25;99843.98;78028;1300;3026757;-64
2023/06/08 08:43:22;;;;;;;4.20;1.40;;;;;;;26.50;29.00;99846.45;79246;1297;3013660;-64
2023/06/08 08:45:51;;;;;;;3.40;1.40;;;;;;;26.51;29.14;99844.84;78044;1298;3057907;-63
2023/06/08 08:48:19;;;;;;;2.80;1.30;;;;;;;26.55;28.55;99848.46;79341;1298;3012930;-63
2023/06/08 08:50:53;;;;;;;2.20;1.60;;;;;;;26.61;29.00;99848.41;79214;1299;3011809;-65
2023/06/08 08:53:27;;;;;;;2.30;1.30;;;;;;;26.40;27.98;99846.74;78019;1300;3053733;-64
2023/06/08 08:55:55;;;;;;;2.50;1.50;;;;;;;26.38;27.83;99844.83;79373;1298;3011561;-63
2023/06/08 08:58:23;;;;;;;4.90;1.10;;;;;;;26.52;27.92;99840.55;78111;1300;3069237;-63
2023/06/08 09:00:50;;;;;;;5.10;1.50;;;;;;;26.74;27.81;99835.91;79301;1300;3012884;-63
2023/06/08 09:03:17;;;;;;;2.80;1.20;;;;;;;26.90;28.04;99834.05;79159;1303;3011591;-62
2023/06/08 09:05:45;;;;;;;2.40;1.20;;;;;;;26.99;28.09;99826.14;78231;1300;3053104;-62
2023/06/08 09:08:12;;;;;;;3.30;1.60;;;;;;;27.16;28.10;99822.88;79188;1303;3013123;-62
2023/06/08 09:10:39;;;;;;;5.40;1.40;;;;;;;27.34;28.24;99816.90;79323;1300;3011525;-63
2023/06/08 09:13:07;;;;;;;7.50;1.40;;;;;;;27.47;28.59;99818.11;78112;1300;3026327;-63
2023/06/08 09:15:37;;;;;;;3.40;1.40;;;;;;;27.49;28.54;99820.61;79158;1298;3014857;-63
2023/06/08 09:18:17;;;;;;;5.10;1.50;;;;;;;27.51;28.40;99819.23;78752;1300;3011923;-63
2023/06/08 09:20:45;;;;;;;5.60;1.30;;;;;;;27.47;28.42;99820.65;78064;1300;3049916;-63
2023/06/08 09:23:16;;;;;;;3.30;1.20;;;;;;;27.30;28.45;99820.55;79308;1298;3013316;-63
2023/06/08 09:25:46;;;;;;;3.40;1.50;;;;;;;27.38;28.52;99818.11;78013;1300;3052444;-63
2023/06/08 09:28:14;;;;;;;2.80;1.40;;;;;;;27.43;28.09;99818.64;79363;1300;3013080;-63
2023/06/08 09:30:44;;;;;;;2.50;1.40;;;;;;;27.39;28.01;99817.88;78202;1297;3025630;-63
2023/06/08 09:33:25;;;;;;;4.70;1.50;;;;;;;27.50;28.10;99815.80;79373;1297;3013832;-65
2023/06/08 09:35:56;;;;;;;4.20;1.70;;;;;;;27.60;28.37;99814.17;78238;1297;3058245;-65
2023/06/08 09:38:28;;;;;;;3.40;1.00;;;;;;;27.60;28.05;99814.27;79531;1300;3012998;-64
2023/06/08 09:41:19;;;;;;;4.40;1.40;;;;;;;27.53;28.30;99816.65;79322;1297;3053456;-65
2023/06/08 09:43:49;;;;;;;3.00;1.50;;;;;;;27.46;28.19;99810.55;77970;1300;3050707;-65
2023/06/08 09:46:35;;;;;;;2.80;1.50;;;;;;;27.47;28.37;99806.99;79360;1300;3011844;-64
2023/06/08 09:49:05;;;;;;;2.80;1.50;;;;;;;27.54;28.66;99804.88;78034;1300;3069188;-65
2023/06/08 09:51:36;;;;;;;3.80;1.60;;;;;;;27.48;28.68;99806.41;79373;1297;3013110;-64
2023/06/08 09:54:05;;;;;;;2.60;1.50;;;;;;;27.42;28.58;99803.15;78197;1297;3055789;-63
2023/06/08 09:56:32;;;;;;;4.10;1.50;;;;;;;27.30;28.73;99802.95;79566;1298;3013531;-62
2023/06/08 09:59:03;;;;;;;3.40;1.50;;;;;;;27.22;28.77;99796.41;79364;1296;3011585;-62
2023/06/08 10:01:40;;;;;;;8.70;1.70;;;;;;;27.29;28.55;99795.02;78278;1300;3052430;-65
2023/06/08 10:04:20;;;;;;;5.40;1.70;;;;;;;27.47;28.21;99788.46;78271;1300;3052740;-65
2023/06/08 10:07:05;;;;;;;3.50;1.30;;;;;;;27.52;28.34;99784.57;78337;1296;3068803;-65
2023/06/08 10:09:37;;;;;;;3.40;1.30;;;;;;;27.44;28.19;99783.92;78317;1297;3051287;-65
2023/06/08 10:12:12;;;;;;;2.90;1.40;;;;;;;27.30;28.18;99782.30;79367;1297;3013011;-65
2023/06/08 10:14:42;;;;;;;7.10;1.50;;;;;;;27.23;28.63;99784.15;79419;1298;3011516;-65
2023/06/08 10:17:30;;;;;;;5.20;1.30;;;;;;;27.32;28.38;99784.38;78296;1300;3049249;-65
2023/06/08 10:20:17;;;;;;;5.30;1.30;;;;;;;27.37;27.91;99782.13;78172;1298;3052821;-65
2023/06/08 10:22:45;;;;;;;4.20;1.10;;;;;;;27.36;28.33;99788.90;79395;1300;3013244;-64
2023/06/08 10:25:13;;;;;;;5.10;1.60;;;;;;;27.58;27.90;99788.30;79320;1300;3011578;-65
2023/06/08 10:27:51;;;;;;;7.10;1.70;;;;;;;27.82;27.68;99786.69;78118;1297;3068817;-65
2023/06/08 10:30:30;;;;;;;4.80;1.60;;;;;;;27.87;27.99;99784.00;78121;1300;3051286;-65
2023/06/08 10:33:10;;;;;;;2.50;1.40;;;;;;;27.88;27.38;99781.52;78210;1300;3056759;-65
2023/06/08 10:35:42;;;;;;;5.60;1.40;;;;;;;27.91;27.36;99777.17;78084;1300;3049533;-65
2023/06/08 10:38:16;;;;;;;5.50;1.80;;;;;;;28.01;27.35;99772.39;79453;1297;3011669;-65
2023/06/08 10:40:51;;;;;;;7.30;1.30;;;;;;;28.21;27.21;99774.66;78350;1297;3049998;-65
2023/06/08 10:43:27;;;;;;;8.80;1.40;;;;;;;28.55;26.97;99764.59;78863;1298;3013222;-64
2023/06/08 10:45:58;;;;;;;5.00;1.90;;;;;;;28.70;26.83;99766.29;78909;1297;3012787;-66
2023/06/08 10:48:34;;;;;;;4.90;1.70;;;;;;;28.64;26.86;99764.85;79424;1300;3012252;-65
2023/06/08 10:51:03;;;;;;;5.10;1.60;;;;;;;28.54;27.01;99764.55;78208;1300;3053983;-65
2023/06/08 10:53:59;;;;;;;5.80;1.70;;;;;;;28.52;26.89;99764.33;79457;1298;3011702;-65
2023/06/08 10:56:29;;;;;;;5.30;1.80;;;;;;;28.49;26.90;99759.31;78130;1296;3053374;-65
2023/06/08 10:58:56;;;;;;;6.10;1.80;;;;;;;28.57;27.27;99757.70;79638;1296;3011670;-67
2023/06/08 11:01:25;;;;;;;5.70;1.90;;;;;;;28.89;26.83;99753.09;79512;1297;3011808;-65
2023/06/08 11:03:54;;;;;;;4.30;1.60;;;;;;;29.21;26.51;99754.13;78143;1300;3050065;-64
2023/06/08 11:06:21;;;;;;;5.20;1.60;;;;;;;29.45;25.67;99754.99;79225;1303;3013236;-66
2023/06/08 11:08:48;;;;;;;8.00;1.70;;;;;;;29.36;25.68;99749.13;79429;1297;3013362;-66
2023/06/08 11:11:17;;;;;;;4.40;1.60;;;;;;;29.22;25.91;99745.03;78101;1300;3050269;-70
2023/06/08 11:13:44;;;;;;;9.00;1.70;;;;;;;29.33;25.91;99746.73;79709;1298;3013350;-66
2023/06/08 11:16:10;;;;;;;4.70;1.80;;;;;;;29.20;26.13;99748.95;79594;1300;3011590;-66
2023/06/08 11:18:45;;;;;;;3.80;1.50;;;;;;;29.14;25.94;99746.52;78185;1300;3048995;-67
2023/06/08 11:21:14;;;;;;;5.50;1.50;;;;;;;28.95;26.20;99744.56;78895;1297;3013326;-66
2023/06/08 13:26:21;;;;;;;5.50;1.50;;;;;;;32.16;21.63;99670.05;80376;1295;3013144;-66
2023/06/08 13:28:48;;;;;;;3.40;1.60;;;;;;;32.26;21.70;99670.92;79243;1299;3018231;-68
2023/06/08 13:31:14;;;;;;;6.20;1.90;;;;;;;32.25;21.48;99671.91;79048;1312;3011869;-67
2023/06/08 13:33:43;;;;;;;8.30;1.80;;;;;;;32.24;21.51;99670.88;77985;1305;3027794;-65
2023/06/08 13:36:09;;;;;;;10.40;1.90;;;;;;;32.24;21.28;99665.54;79237;1304;3013536;-65
2023/06/08 13:38:36;;;;;;;3.10;1.70;;;;;;;32.29;21.20;99664.73;77613;1304;3013122;-64
2023/06/08 13:41:04;;;;;;;5.20;1.60;;;;;;;32.02;21.52;99667.42;78148;1301;3029812;-65
2023/06/08 13:43:31;;;;;;;3.70;1.70;;;;;;;31.55;22.21;99663.21;79470;1301;3012774;-64
2023/06/08 13:45:58;;;;;;;2.70;1.40;;;;;;;31.07;22.65;99666.65;79285;1301;3013573;-65
2023/06/08 13:48:26;;;;;;;5.70;1.80;;;;;;;30.81;22.85;99663.15;78269;1301;3025844;-65
2023/06/08 13:50:54;;;;;;;6.30;1.70;;;;;;;30.57;22.99;99664.02;79608;1294;3011536;-63
2023/06/08 13:53:21;;;;;;;3.80;1.60;;;;;;;30.40;23.10;99663.19;79497;1296;3011659;-64
2023/06/08 13:55:49;;;;;;;4.20;1.60;;;;;;;30.22;23.49;99660.28;78187;1300;3048936;-64
2023/06/08 13:58:16;;;;;;;7.50;2.10;;;;;;;30.08;23.72;99658.81;79605;1301;3013277;-64
2023/06/08 14:00:43;;;;;;;7.10;1.90;;;;;;;30.13;23.83;99655.04;79407;1301;3011995;-65
2023/06/08 14:03:10;;;;;;;8.90;2.40;;;;;;;30.53;23.29;99652.73;78274;1301;3027750;-63
2023/06/08 14:05:37;;;;;;;4.90;1.80;;;;;;;30.91;23.04;99646.34;80880;1298;3013027;-64
2023/06/08 14:08:04;;;;;;;5.70;1.80;;;;;;;31.17;22.51;99642.03;79324;1298;3013135;-63
2023/06/08 14:10:33;;;;;;;3.80;1.40;;;;;;;30.99;22.49;99641.98;78208;1298;3048538;-65
2023/06/08 14:13:00;;;;;;;3.90;1.40;;;;;;;30.70;22.41;99640.63;79515;1298;3013210;-64
2023/06/08 14:15:26;;;;;;;4.30;1.70;;;;;;;30.65;22.61;99635.46;79488;1298;3013073;-64
2023/06/08 14:17:56;;;;;;;3.00;1.60;;;;;;;30.96;22.59;99638.41;78122;1301;3025425;-64
2023/06/08 14:20:24;;;;;;;2.30;1.50;;;;;;;31.29;22.07;99631.27;79560;1297;3013782;-63
2023/06/08 14:22:50;;;;;;;2.60;1.40;;;;;;;31.59;21.67;99631.98;79441;1295;3013602;-64
2023/06/08 14:25:18;;;;;;;3.00;1.60;;;;;;;31.73;21.18;99627.77;78142;1301;3048926;-64
2023/06/08 14:27:45;;;;;;;3.20;1.50;;;;;;;31.85;21.14;99626.37;79492;1299;3014120;-64
2023/06/08 14:30:12;;;;;;;5.80;1.70;;;;;;;31.97;20.85;99626.41;79502;1299;3011463;-64
2023/06/08 14:32:40;;;;;;;3.80;1.20;;;;;;;31.99;20.84;99627.13;78244;1298;3027179;-63
2023/06/08 14:35:07;;;;;;;4.50;1.80;;;;;;;32.11;21.13;99621.00;79456;1298;3013806;-64
2023/06/08 14:37:34;;;;;;;5.00;1.60;;;;;;;32.02;20.94;99618.19;79297;1301;3011705;-64
2023/06/08 14:40:02;;;;;;;3.90;1.60;;;;;;;31.79;21.33;99617.58;78051;1300;3028256;-64
2023/06/08 14:42:29;;;;;;;3.50;1.50;;;;;;;31.50;21.80;99612.45;79524;1296;3013527;-64
2023/06/08 14:44:55;;;;;;;3.30;1.60;;;;;;;31.33;21.83;99610.85;79509;1301;3011629;-64
2023/06/08 14:47:23;;;;;;;4.00;1.60;;;;;;;31.49;21.94;99609.81;78210;1300;3051419;-64
2023/06/08 14:49:50;;;;;;;7.00;1.70;;;;;;;31.70;21.45;99609.71;79539;1298;3013255;-63
2023/06/08 14:52:16;;;;;;;6.20;1.80;;;;;;;31.68;21.18;99605.98;79339;1301;3011515;-63
2023/06/08 14:54:44;;;;;;;5.60;1.60;;;;;;;31.80;20.76;99600.07;78161;1300;3026925;-64
2023/06/08 14:57:11;;;;;;;6.70;1.70;;;;;;;32.00;20.84;99596.52;79484;1296;3012942;-64
2023/06/08 14:59:40;;;;;;;4.50;1.70;;;;;;;32.23;20.58;99593.45;79391;1295;3011709;-64
2023/06/08 15:02:07;;;;;;;3.70;1.50;;;;;;;32.31;20.77;99592.30;78412;1302;3052017;-64
2023/06/08 15:04:34;;;;;;;4.30;1.80;;;;;;;32.36;20.63;99589.96;79481;1295;3013089;-63
2023/06/08 15:07:01;;;;;;;3.90;1.80;;;;;;;32.36;20.91;99588.45;79396;1301;3011630;-64
2023/06/08 15:09:29;;;;;;;2.50;1.50;;;;;;;32.41;20.62;99584.01;78413;1299;3026527;-64
2023/06/08 15:11:56;;;;;;;2.90;1.60;;;;;;;32.52;20.39;99584.27;79692;1295;3013247;-63
2023/06/08 15:14:23;;;;;;;3.30;1.70;;;;;;;32.71;20.28;99583.04;79427;1301;3012685;-63
2023/06/08 15:16:51;;;;;;;5.00;1.60;;;;;;;32.78;20.31;99585.46;78421;1298;3052899;-64
2023/06/08 15:19:17;;;;;;;8.40;1.70;;;;;;;32.94;20.08;99579.92;79338;1295;3013799;-64
2023/06/08 15:21:45;;;;;;;4.60;1.50;;;;;;;33.02;19.82;99581.69;79355;1295;3011751;-63
2023/06/08 15:24:13;;;;;;;3.40;1.40;;;;;;;32.97;20.13;99582.62;78224;1299;3050373;-64
2023/06/08 15:26:40;;;;;;;2.60;1.40;;;;;;;33.05;20.09;99578.54;79688;1296;3020795;-63
2023/06/08 15:29:07;;;;;;;7.60;1.70;;;;;;;33.08;19.88;99579.77;79476;1296;3011654;-63
2023/06/08 15:31:34;;;;;;;4.70;1.80;;;;;;;33.12;20.02;99577.27;78281;1302;3027188;-64
2023/06/08 15:34:01;;;;;;;7.40;1.90;;;;;;;33.15;20.03;99574.23;79519;1297;3013672;-63
2023/06/08 15:36:28;;;;;;;5.50;1.70;;;;;;;33.19;19.99;99576.55;79425;1298;3012968;-66
2023/06/08 15:38:57;;;;;;;2.20;1.60;;;;;;;33.23;20.07;99572.74;78384;1300;3026278;-64
2023/06/08 15:41:24;;;;;;;5.10;1.70;;;;;;;33.22;20.15;99572.77;79384;1299;3011597;-64
2023/06/08 15:43:51;;;;;;;3.80;1.60;;;;;;;33.17;20.21;99570.69;79464;1295;3013945;-63
2023/06/08 15:46:19;;;;;;;9.90;2.10;;;;;;;33.24;20.11;99578.48;78259;1299;3052901;-64
2023/06/08 15:48:53;;;;;;;4.20;1.50;;;;;;;33.35;19.97;99577.95;79433;1296;3013015;-63
2023/06/08 15:51:30;;;;;;;3.70;1.60;;;;;;;33.31;19.91;99577.38;78343;1300;3055809;-63
2023/06/08 15:53:59;;;;;;;10.10;1.70;;;;;;;33.26;20.01;99576.98;78421;1298;3049952;-63
2023/06/08 15:56:26;;;;;;;4.80;1.50;;;;;;;33.19;19.86;99573.92;79422;1295;3014807;-63
2023/06/08 15:58:54;;;;;;;2.90;1.50;;;;;;;33.22;19.87;99571.98;79481;1298;3011447;-63
2023/06/08 16:01:21;;;;;;;8.20;1.40;;;;;;;33.24;19.92;99574.12;78402;1295;3050992;-62
2023/06/08 16:03:48;;;;;;;7.20;1.40;;;;;;;33.32;20.07;99573.64;79546;1298;3018988;-63
2023/06/08 16:06:15;;;;;;;2.40;1.60;;;;;;;33.40;19.69;99570.88;79410;1299;3013232;-63
2023/06/08 16:08:44;;;;;;;5.10;1.30;;;;;;;33.51;19.64;99566.52;78091;1298;3029616;-63
2023/06/08 16:11:11;;;;;;;4.10;1.70;;;;;;;33.47;19.29;99560.64;79439;1296;3014560;-63
2023/06/08 16:13:37;;;;;;;6.10;1.70;;;;;;;33.40;19.72;99562.16;79381;1295;3011678;-63
2023/06/08 16:16:06;;;;;;;4.20;1.50;;;;;;;33.26;19.78;99561.48;78296;1299;3052286;-64
2023/06/08 16:18:33;;;;;;;3.00;1.40;;;;;;;33.20;19.83;99556.77;79485;1296;3013830;-64
2023/06/08 16:20:59;;;;;;;4.20;1.60;;;;;;;33.19;19.51;99553.43;79418;1298;3012638;-64
2023/06/08 16:23:27;;;;;;;2.10;1.50;;;;;;;33.18;19.55;99551.02;78386;1298;3049712;-63
2023/06/08 16:25:54;;;;;;;5.20;1.80;;;;;;;33.16;19.66;99553.14;79497;1301;3013204;-63
2023/06/08 16:28:21;;;;;;;5.00;1.70;;;;;;;33.03;19.83;99550.52;79402;1298;3013595;-63
2023/06/08 16:30:49;;;;;;;5.50;1.60;;;;;;;32.88;19.76;99550.85;78087;1299;3027653;-64
2023/06/08 16:33:15;;;;;;;3.70;1.90;;;;;;;32.69;19.85;99548.66;79398;1301;3013052;-63
2023/06/08 16:35:42;;;;;;;5.60;1.90;;;;;;;32.51;20.01;99550.19;79292;1300;3011598;-63
2023/06/08 16:38:10;;;;;;;4.60;1.90;;;;;;;32.37;20.35;99554.51;78324;1295;3026884;-63
2023/06/08 16:40:38;;;;;;;4.80;1.90;;;;;;;32.09;21.07;99549.42;79557;1295;3013138;-63
2023/06/08 16:43:05;;;;;;;4.20;1.70;;;;;;;31.61;21.47;99548.03;79636;1295;3011674;-63
2023/06/08 16:45:34;;;;;;;4.50;1.70;;;;;;;31.02;22.16;99548.92;78234;1301;3054402;-63
2023/06/08 16:48:01;;;;;;;6.20;1.80;;;;;;;30.58;22.74;99550.55;79523;1299;3013311;-63
2023/06/08 16:50:28;;;;;;;6.40;2.10;;;;;;;30.17;23.30;99550.23;79380;1300;3012942;-63
2023/06/08 16:52:55;;;;;;;2.80;1.90;;;;;;;29.83;24.02;99551.83;78129;1296;3049352;-63
2023/06/08 16:55:22;;;;;;;3.60;1.70;;;;;;;29.43;24.63;99548.52;79349;1295;3020803;-64
2023/06/08 16:57:49;;;;;;;2.90;1.90;;;;;;;29.19;24.94;99557.57;79566;1301;3011633;-63
2023/06/08 17:00:17;;;;;;;6.00;1.60;;;;;;;28.83;25.49;99557.68;78081;1300;3026436;-64
2023/06/08 17:02:44;;;;;;;4.10;2.10;;;;;;;28.63;25.88;99554.79;79436;1296;3013763;-62
2023/06/08 17:05:12;;;;;;;2.80;1.50;;;;;;;28.43;26.10;99559.05;79463;1295;3013656;-62
2023/06/08 17:07:40;;;;;;;5.20;1.90;;;;;;;28.23;26.48;99564.23;78245;1298;3048722;-63
2023/06/08 17:10:07;;;;;;;4.10;1.50;;;;;;;28.04;26.94;99560.09;79263;1301;3013520;-63
2023/06/08 17:12:34;;;;;;;7.20;2.00;;;;;;;27.89;27.17;99563.53;79296;1295;3011914;-63
2023/06/08 17:15:04;;;;;;;8.30;2.00;;;;;;;27.70;27.55;99560.48;78280;1298;3052705;-64
2023/06/08 17:17:32;;;;;;;5.80;1.90;;;;;;;27.50;27.80;99561.04;79506;1294;3013223;-64
2023/06/08 17:19:58;;;;;;;4.70;2.50;;;;;;;27.38;27.86;99563.55;79624;1295;3013454;-64
2023/06/08 17:22:27;;;;;;;8.40;2.60;;;;;;;27.18;28.27;99563.35;78095;1301;3049216;-64
2023/06/08 17:24:57;;;;;;;9.00;2.70;;;;;;;27.01;28.45;99563.95;79590;1295;3013385;-63
2023/06/08 17:27:24;;;;;;;9.90;2.40;;;;;;;26.87;28.44;99566.95;78131;1298;3052032;-63
2023/06/08 17:29:53;;;;;;;6.50;2.50;;;;;;;26.70;28.77;99568.64;79363;1298;3013341;-63
2023/06/08 17:32:19;;;;;;;4.20;1.80;;;;;;;26.52;29.06;99568.72;79469;1295;3011568;-63
2023/06/08 17:34:47;;;;;;;5.50;1.70;;;;;;;26.38;29.16;99575.09;78194;1301;3057389;-63
2023/06/08 17:37:14;;;;;;;3.90;1.70;;;;;;;26.25;29.54;99572.80;79409;1296;3013432;-63
2023/06/08 17:39:44;;;;;;;8.30;2.10;;;;;;;26.09;29.68;99572.30;79396;1295;3011773;-65
2023/06/08 17:42:12;;;;;;;5.90;1.60;;;;;;;25.97;29.91;99572.71;78275;1298;3051662;-64
2023/06/08 17:44:39;;;;;;;5.20;1.80;;;;;;;25.77;30.23;99570.45;79480;1301;3013194;-63
2023/06/08 17:47:06;;;;;;;6.10;2.30;;;;;;;25.58;30.51;99572.76;79280;1295;3011738;-63
2023/06/08 17:49:34;;;;;;;5.20;2.10;;;;;;;25.43;30.68;99573.49;78354;1298;3057326;-64
2023/06/08 17:52:01;;;;;;;7.80;1.80;;;;;;;25.35;30.66;99572.92;79661;1295;3019725;-63
2023/06/08 17:54:28;;;;;;;6.10;1.90;;;;;;;25.23;30.74;99578.73;79384;1295;3011573;-63
2023/06/08 17:56:56;;;;;;;4.80;2.00;;;;;;;25.14;30.95;99582.40;78173;1299;3026822;-63
2023/06/08 17:59:22;;;;;;;5.90;1.90;;;;;;;25.02;31.22;99583.56;79391;1296;3018885;-63
2023/06/08 18:01:49;;;;;;;6.00;1.90;;;;;;;24.92;31.38;99585.20;79445;1299;3011902;-62
2023/06/08 18:04:17;;;;;;;8.20;2.10;;;;;;;24.84;31.55;99585.61;78238;1298;3027492;-62
2023/06/08 18:06:44;;;;;;;2.70;1.80;;;;;;;24.73;31.72;99583.30;79535;1295;3013599;-63
2023/06/08 18:09:11;;;;;;;5.00;1.80;;;;;;;24.64;31.85;99586.30;79386;1298;3013563;-62
2023/06/08 18:11:39;;;;;;;3.90;2.10;;;;;;;24.56;31.84;99580.77;78328;1298;3026555;-64
2023/06/08 18:14:10;;;;;;;9.50;2.30;;;;;;;24.42;32.13;99586.15;79335;1301;3011757;-63
2023/06/08 18:16:39;;;;;;;7.70;1.80;;;;;;;24.37;31.98;99588.56;78329;1298;3068857;-63
2023/06/08 18:19:05;;;;;;;9.40;1.80;;;;;;;24.30;32.11;99592.39;79635;1296;3013371;-64
2023/06/08 18:21:32;;;;;;;5.00;1.90;;;;;;;24.25;32.20;99592.29;79425;1295;3011684;-64
2023/06/08 18:24:00;;;;;;;5.90;2.10;;;;;;;24.13;32.55;99592.90;78171;1298;3026573;-64
2023/06/08 18:26:27;;;;;;;6.50;2.00;;;;;;;24.03;32.62;99590.65;79479;1298;3013862;-64
2023/06/08 18:28:56;;;;;;;3.90;1.90;;;;;;;23.98;32.69;99592.58;79499;1299;3011854;-65
2023/06/08 18:31:27;;;;;;;4.90;2.10;;;;;;;23.89;32.81;99593.02;78355;1295;3069850;-64
2023/06/08 18:33:55;;;;;;;3.50;1.90;;;;;;;23.79;33.02;99592.80;79468;1298;3012817;-64
2023/06/08 18:36:26;;;;;;;7.80;2.00;;;;;;;23.71;33.36;99597.35;78287;1296;3057430;-62
2023/06/08 18:38:53;;;;;;;9.40;1.90;;;;;;;23.65;33.41;99598.77;79488;1295;3012981;-64
2023/06/08 18:41:22;;;;;;;8.80;1.70;;;;;;;23.59;33.58;99596.56;79247;1297;3011575;-65
2023/06/08 18:43:49;;;;;;;6.00;1.90;;;;;;;23.51;33.85;99596.58;79768;1298;3012870;-65
2023/06/08 18:46:17;;;;;;;6.20;1.50;;;;;;;23.44;33.74;99601.25;79613;1297;3011910;-64
2023/06/08 18:48:45;;;;;;;5.30;2.20;;;;;;;23.36;33.77;99598.41;78353;1295;3069518;-64
2023/06/08 18:51:12;;;;;;;7.60;2.40;;;;;;;23.33;33.75;99599.15;79436;1295;3013106;-63
2023/06/08 18:53:38;;;;;;;7.00;2.30;;;;;;;23.28;33.83;99603.61;79491;1298;3012094;-64
2023/06/08 18:56:06;;;;;;;6.60;1.90;;;;;;;23.25;34.02;99597.58;78176;1295;3026554;-64
2023/06/08 18:58:33;;;;;;;4.30;1.90;;;;;;;23.20;34.08;99602.53;79437;1297;3020682;-63
2023/06/08 19:01:00;;;;;;;3.90;1.90;;;;;;;23.14;34.05;99602.69;79452;1298;3011668;-63